Terminal Aerodrome Forecast
Issued by NWS

Home | Current Version | Previous Version | Text Only | Print | Product List | Glossary On
Versions: 1 2 3 4 5 6 7 8 9 10 11 12 13 14 15 16 17 18 19 20 21 22 23 24 25 26
000
FTUS45 KGGW 041100
TAFGDV
TAF
KGDV 041132Z 0412/0512 07007KT P6SM SCT150 WS020/01030KT
     FM042100 12013KT P6SM BKN090
     FM042300 11010KT 5SM -TSRA SCT070 OVC090CB
     FM050300 22008KT 5SM -TSRA SCT020 OVC090CB
     FM050600 VRB03KT P6SM VCSH BKN045 BKN090
      AMD LTD TO CLD VIS AND WIND=

USA.gov is the U.S. government's official web portal to all federal, state and local government web resources and services.